aviador You're here:

CYQW Decoded Metar

NORTH BATTLEFORD in SK, CANADA
Report Time2018-07-23 15:00:00
UTC Time2018-07-23 15:45:53
Flight Rules vfr VFR
Wind300° at 14 Gusting to 19 kt
W.Decomp.*RWY 30: 13.7 kt HW 2.9 kt LCW
RWY 24: 9.4 kt HW 10.4 kt RCW
W.Rank300° ranks 2
Current wind is above 300° avg. (9.8)
Visibility9999 m
Phenomena:N/A
Clouds:N/A
Expected CloudBase > 1,600 ft AGL from Temp-Dew spread
CeilingNone
Temp14°C (ISA +3)
Dew Point10°C (77% RH)
AAT9.0°C
QNH1023 hPa
Density Alt1,936 ft
Elevation1,798 ft
Report Wrong Elevation
Raw Report
CYQW 231500Z AUTO 30014G19KT 9SM CLR 14/10 A3021 RMK SLP240=

Extra information for CYQW:More info

Metar Taf Metar & Taf Last 4 Metars F.Rules Stats Wind Profile Meteogram Temp Stats Airport Information Weather charts Add Link Nearby VenuesMetar ALERT Operation Metar Decoded Social comments